sensor_id;sensor_type;location;lat;lon;timestamp;P1;durP1;ratioP1;P2;durP2;ratioP2
61471;SDS011;47337;54.068;12.114;2024-03-07T00:01:06;16.33;;;7.63;;
61471;SDS011;47337;54.068;12.114;2024-03-07T00:03:32;14.68;;;7.70;;
61471;SDS011;47337;54.068;12.114;2024-03-07T00:05:57;13.70;;;7.25;;
61471;SDS011;47337;54.068;12.114;2024-03-07T00:08:23;14.30;;;7.28;;
61471;SDS011;47337;54.068;12.114;2024-03-07T00:10:48;16.83;;;8.77;;
61471;SDS011;47337;54.068;12.114;2024-03-07T00:13:14;14.25;;;7.70;;
61471;SDS011;47337;54.068;12.114;2024-03-07T00:15:39;18.63;;;7.57;;
61471;SDS011;47337;54.068;12.114;2024-03-07T00:18:05;14.25;;;7.75;;
61471;SDS011;47337;54.068;12.114;2024-03-07T00:20:30;13.23;;;7.43;;
61471;SDS011;47337;54.068;12.114;2024-03-07T00:22:56;15.05;;;7.30;;
61471;SDS011;47337;54.068;12.114;2024-03-07T00:25:21;11.30;;;6.65;;
61471;SDS011;47337;54.068;12.114;2024-03-07T00:27:47;16.33;;;7.13;;
61471;SDS011;47337;54.068;12.114;2024-03-07T00:30:12;14.75;;;7.07;;
61471;SDS011;47337;54.068;12.114;2024-03-07T00:32:39;15.48;;;8.07;;
61471;SDS011;47337;54.068;12.114;2024-03-07T00:35:05;20.25;;;8.57;;
61471;SDS011;47337;54.068;12.114;2024-03-07T00:37:30;14.38;;;8.05;;
61471;SDS011;47337;54.068;12.114;2024-03-07T00:39:56;16.23;;;8.50;;
61471;SDS011;47337;54.068;12.114;2024-03-07T00:42:21;16.15;;;7.82;;
61471;SDS011;47337;54.068;12.114;2024-03-07T00:44:47;17.83;;;8.15;;
61471;SDS011;47337;54.068;12.114;2024-03-07T00:47:14;14.63;;;7.45;;
61471;SDS011;47337;54.068;12.114;2024-03-07T00:49:42;17.00;;;7.85;;
61471;SDS011;47337;54.068;12.114;2024-03-07T00:52:07;12.38;;;7.55;;
61471;SDS011;47337;54.068;12.114;2024-03-07T00:54:33;18.58;;;7.72;;
61471;SDS011;47337;54.068;12.114;2024-03-07T00:56:59;16.50;;;7.45;;
61471;SDS011;47337;54.068;12.114;2024-03-07T00:59:27;16.98;;;7.72;;
61471;SDS011;47337;54.068;12.114;2024-03-07T01:01:52;15.48;;;7.85;;
61471;SDS011;47337;54.068;12.114;2024-03-07T01:04:17;15.25;;;8.15;;
61471;SDS011;47337;54.068;12.114;2024-03-07T01:06:44;18.05;;;8.52;;
61471;SDS011;47337;54.068;12.114;2024-03-07T01:09:10;16.83;;;9.20;;
61471;SDS011;47337;54.068;12.114;2024-03-07T01:11:40;18.80;;;8.77;;
61471;SDS011;47337;54.068;12.114;2024-03-07T01:14:05;17.63;;;9.70;;
61471;SDS011;47337;54.068;12.114;2024-03-07T01:16:35;21.05;;;9.88;;
61471;SDS011;47337;54.068;12.114;2024-03-07T01:19:01;15.77;;;8.75;;
61471;SDS011;47337;54.068;12.114;2024-03-07T01:21:26;14.55;;;7.95;;
61471;SDS011;47337;54.068;12.114;2024-03-07T01:23:51;20.15;;;8.98;;
61471;SDS011;47337;54.068;12.114;2024-03-07T01:26:16;17.10;;;8.35;;
61471;SDS011;47337;54.068;12.114;2024-03-07T01:28:42;18.92;;;8.38;;
61471;SDS011;47337;54.068;12.114;2024-03-07T01:31:10;17.63;;;8.13;;
61471;SDS011;47337;54.068;12.114;2024-03-07T01:33:35;19.85;;;9.07;;
61471;SDS011;47337;54.068;12.114;2024-03-07T01:36:03;17.90;;;8.45;;
61471;SDS011;47337;54.068;12.114;2024-03-07T01:38:31;18.02;;;8.18;;
61471;SDS011;47337;54.068;12.114;2024-03-07T01:40:56;18.05;;;8.43;;
61471;SDS011;47337;54.068;12.114;2024-03-07T01:43:21;16.13;;;8.68;;
61471;SDS011;47337;54.068;12.114;2024-03-07T01:45:47;26.48;;;9.10;;
61471;SDS011;47337;54.068;12.114;2024-03-07T01:48:13;15.20;;;8.32;;
61471;SDS011;47337;54.068;12.114;2024-03-07T01:50:43;17.00;;;8.13;;
61471;SDS011;47337;54.068;12.114;2024-03-07T01:53:12;18.65;;;9.13;;
61471;SDS011;47337;54.068;12.114;2024-03-07T01:55:41;18.65;;;9.75;;
61471;SDS011;47337;54.068;12.114;2024-03-07T01:58:06;19.98;;;8.32;;
61471;SDS011;47337;54.068;12.114;2024-03-07T02:00:32;17.75;;;8.85;;
61471;SDS011;47337;54.068;12.114;2024-03-07T02:02:57;14.50;;;8.07;;
61471;SDS011;47337;54.068;12.114;2024-03-07T02:05:22;17.90;;;8.80;;
61471;SDS011;47337;54.068;12.114;2024-03-07T02:07:51;15.43;;;7.55;;
61471;SDS011;47337;54.068;12.114;2024-03-07T02:10:17;14.25;;;8.00;;
61471;SDS011;47337;54.068;12.114;2024-03-07T02:12:43;18.35;;;8.77;;
61471;SDS011;47337;54.068;12.114;2024-03-07T02:15:08;16.92;;;9.38;;
61471;SDS011;47337;54.068;12.114;2024-03-07T02:17:33;15.77;;;8.88;;
61471;SDS011;47337;54.068;12.114;2024-03-07T02:20:00;14.10;;;7.93;;
61471;SDS011;47337;54.068;12.114;2024-03-07T02:22:25;19.48;;;9.35;;
61471;SDS011;47337;54.068;12.114;2024-03-07T02:24:51;16.05;;;8.48;;
61471;SDS011;47337;54.068;12.114;2024-03-07T02:27:16;19.88;;;9.00;;
61471;SDS011;47337;54.068;12.114;2024-03-07T02:29:42;18.60;;;9.20;;
61471;SDS011;47337;54.068;12.114;2024-03-07T02:32:07;20.27;;;8.98;;
61471;SDS011;47337;54.068;12.114;2024-03-07T02:34:33;19.27;;;9.52;;
61471;SDS011;47337;54.068;12.114;2024-03-07T02:36:59;17.60;;;9.45;;
61471;SDS011;47337;54.068;12.114;2024-03-07T02:39:24;20.27;;;9.02;;
61471;SDS011;47337;54.068;12.114;2024-03-07T02:41:52;17.70;;;8.98;;
61471;SDS011;47337;54.068;12.114;2024-03-07T02:44:17;19.48;;;9.68;;
61471;SDS011;47337;54.068;12.114;2024-03-07T02:46:43;19.70;;;9.55;;
61471;SDS011;47337;54.068;12.114;2024-03-07T02:49:08;16.70;;;9.00;;
61471;SDS011;47337;54.068;12.114;2024-03-07T02:51:36;24.02;;;9.10;;
61471;SDS011;47337;54.068;12.114;2024-03-07T02:54:01;16.73;;;8.02;;
61471;SDS011;47337;54.068;12.114;2024-03-07T02:56:30;19.98;;;9.35;;
61471;SDS011;47337;54.068;12.114;2024-03-07T02:58:58;17.75;;;9.43;;
61471;SDS011;47337;54.068;12.114;2024-03-07T03:01:23;19.90;;;9.32;;
61471;SDS011;47337;54.068;12.114;2024-03-07T03:03:48;17.25;;;9.85;;
61471;SDS011;47337;54.068;12.114;2024-03-07T03:06:14;19.55;;;9.82;;
61471;SDS011;47337;54.068;12.114;2024-03-07T03:08:41;18.17;;;9.52;;
61471;SDS011;47337;54.068;12.114;2024-03-07T03:11:06;16.30;;;9.18;;
61471;SDS011;47337;54.068;12.114;2024-03-07T03:13:36;18.83;;;9.85;;
61471;SDS011;47337;54.068;12.114;2024-03-07T03:16:03;22.58;;;9.50;;
61471;SDS011;47337;54.068;12.114;2024-03-07T03:18:29;20.48;;;9.90;;
61471;SDS011;47337;54.068;12.114;2024-03-07T03:20:56;17.63;;;10.45;;
61471;SDS011;47337;54.068;12.114;2024-03-07T03:23:21;18.65;;;9.88;;
61471;SDS011;47337;54.068;12.114;2024-03-07T03:25:46;26.05;;;10.65;;
61471;SDS011;47337;54.068;12.114;2024-03-07T03:28:13;20.38;;;10.18;;
61471;SDS011;47337;54.068;12.114;2024-03-07T03:30:39;19.60;;;9.23;;
61471;SDS011;47337;54.068;12.114;2024-03-07T03:33:04;21.48;;;10.25;;
61471;SDS011;47337;54.068;12.114;2024-03-07T03:35:30;20.10;;;10.35;;
61471;SDS011;47337;54.068;12.114;2024-03-07T03:37:56;21.20;;;10.45;;
61471;SDS011;47337;54.068;12.114;2024-03-07T03:40:21;23.73;;;10.05;;
61471;SDS011;47337;54.068;12.114;2024-03-07T03:42:46;20.77;;;10.10;;
61471;SDS011;47337;54.068;12.114;2024-03-07T03:45:12;21.42;;;10.65;;
61471;SDS011;47337;54.068;12.114;2024-03-07T03:47:41;19.65;;;10.65;;
61471;SDS011;47337;54.068;12.114;2024-03-07T03:50:07;23.40;;;11.13;;
61471;SDS011;47337;54.068;12.114;2024-03-07T03:52:35;20.70;;;10.45;;
61471;SDS011;47337;54.068;12.114;2024-03-07T03:55:01;26.35;;;10.50;;
61471;SDS011;47337;54.068;12.114;2024-03-07T03:57:27;21.50;;;9.85;;
61471;SDS011;47337;54.068;12.114;2024-03-07T03:59:52;24.25;;;10.27;;
61471;SDS011;47337;54.068;12.114;2024-03-07T04:02:18;25.02;;;11.07;;
61471;SDS011;47337;54.068;12.114;2024-03-07T04:04:43;27.15;;;11.55;;
61471;SDS011;47337;54.068;12.114;2024-03-07T04:07:10;23.77;;;11.27;;
61471;SDS011;47337;54.068;12.114;2024-03-07T04:09:36;22.10;;;10.30;;
61471;SDS011;47337;54.068;12.114;2024-03-07T04:12:01;22.48;;;10.85;;
61471;SDS011;47337;54.068;12.114;2024-03-07T04:14:28;22.88;;;10.55;;
61471;SDS011;47337;54.068;12.114;2024-03-07T04:16:57;22.50;;;10.38;;
61471;SDS011;47337;54.068;12.114;2024-03-07T04:19:25;24.27;;;11.20;;
61471;SDS011;47337;54.068;12.114;2024-03-07T04:21:50;20.23;;;10.85;;
61471;SDS011;47337;54.068;12.114;2024-03-07T04:24:16;21.00;;;11.05;;
61471;SDS011;47337;54.068;12.114;2024-03-07T04:26:41;21.13;;;10.88;;
61471;SDS011;47337;54.068;12.114;2024-03-07T04:29:07;24.60;;;10.57;;
61471;SDS011;47337;54.068;12.114;2024-03-07T04:31:33;29.35;;;12.05;;
61471;SDS011;47337;54.068;12.114;2024-03-07T04:34:01;22.45;;;11.38;;
61471;SDS011;47337;54.068;12.114;2024-03-07T04:36:28;22.30;;;11.23;;
61471;SDS011;47337;54.068;12.114;2024-03-07T04:38:54;23.33;;;12.02;;
61471;SDS011;47337;54.068;12.114;2024-03-07T04:41:19;23.13;;;11.25;;
61471;SDS011;47337;54.068;12.114;2024-03-07T04:43:44;23.60;;;11.40;;
61471;SDS011;47337;54.068;12.114;2024-03-07T04:46:12;24.27;;;12.63;;
61471;SDS011;47337;54.068;12.114;2024-03-07T04:48:37;22.17;;;11.82;;
61471;SDS011;47337;54.068;12.114;2024-03-07T04:51:02;25.67;;;12.55;;
61471;SDS011;47337;54.068;12.114;2024-03-07T04:53:30;24.95;;;11.45;;
61471;SDS011;47337;54.068;12.114;2024-03-07T04:55:55;22.83;;;11.23;;
61471;SDS011;47337;54.068;12.114;2024-03-07T04:58:21;29.40;;;12.60;;
61471;SDS011;47337;54.068;12.114;2024-03-07T05:00:46;24.65;;;11.02;;
61471;SDS011;47337;54.068;12.114;2024-03-07T05:03:11;21.13;;;10.75;;
61471;SDS011;47337;54.068;12.114;2024-03-07T05:05:36;23.35;;;11.40;;
61471;SDS011;47337;54.068;12.114;2024-03-07T05:08:02;29.80;;;11.55;;
61471;SDS011;47337;54.068;12.114;2024-03-07T05:10:31;22.80;;;12.70;;
61471;SDS011;47337;54.068;12.114;2024-03-07T05:12:56;26.58;;;12.63;;
61471;SDS011;47337;54.068;12.114;2024-03-07T05:15:24;22.20;;;11.73;;
61471;SDS011;47337;54.068;12.114;2024-03-07T05:17:51;23.08;;;12.45;;
61471;SDS011;47337;54.068;12.114;2024-03-07T05:20:17;27.05;;;12.65;;
61471;SDS011;47337;54.068;12.114;2024-03-07T05:22:42;25.50;;;12.80;;
61471;SDS011;47337;54.068;12.114;2024-03-07T05:25:15;26.75;;;13.13;;
61471;SDS011;47337;54.068;12.114;2024-03-07T05:27:41;23.48;;;12.73;;
61471;SDS011;47337;54.068;12.114;2024-03-07T05:30:07;28.38;;;12.32;;
61471;SDS011;47337;54.068;12.114;2024-03-07T05:32:34;31.42;;;13.15;;
61471;SDS011;47337;54.068;12.114;2024-03-07T05:35:02;27.83;;;12.68;;
61471;SDS011;47337;54.068;12.114;2024-03-07T05:37:27;33.38;;;13.35;;
61471;SDS011;47337;54.068;12.114;2024-03-07T05:39:52;38.72;;;13.95;;
61471;SDS011;47337;54.068;12.114;2024-03-07T05:42:18;25.50;;;12.20;;
61471;SDS011;47337;54.068;12.114;2024-03-07T05:44:46;25.65;;;12.80;;
61471;SDS011;47337;54.068;12.114;2024-03-07T05:47:11;26.08;;;12.77;;
61471;SDS011;47337;54.068;12.114;2024-03-07T05:49:38;22.63;;;12.48;;
61471;SDS011;47337;54.068;12.114;2024-03-07T05:52:04;24.48;;;12.43;;
61471;SDS011;47337;54.068;12.114;2024-03-07T05:54:30;27.10;;;12.57;;
61471;SDS011;47337;54.068;12.114;2024-03-07T05:56:56;24.45;;;12.07;;
61471;SDS011;47337;54.068;12.114;2024-03-07T05:59:23;25.70;;;13.38;;
61471;SDS011;47337;54.068;12.114;2024-03-07T06:01:49;26.83;;;14.23;;
61471;SDS011;47337;54.068;12.114;2024-03-07T06:04:15;26.55;;;12.68;;
61471;SDS011;47337;54.068;12.114;2024-03-07T06:06:41;25.45;;;12.75;;
61471;SDS011;47337;54.068;12.114;2024-03-07T06:09:07;26.88;;;13.20;;
61471;SDS011;47337;54.068;12.114;2024-03-07T06:11:38;32.25;;;13.32;;
61471;SDS011;47337;54.068;12.114;2024-03-07T06:14:04;26.23;;;11.88;;
61471;SDS011;47337;54.068;12.114;2024-03-07T06:16:31;28.10;;;12.98;;
61471;SDS011;47337;54.068;12.114;2024-03-07T06:18:58;28.65;;;13.68;;
61471;SDS011;47337;54.068;12.114;2024-03-07T06:21:23;25.52;;;13.07;;
61471;SDS011;47337;54.068;12.114;2024-03-07T06:23:48;28.38;;;14.20;;
61471;SDS011;47337;54.068;12.114;2024-03-07T06:26:20;27.58;;;14.13;;
61471;SDS011;47337;54.068;12.114;2024-03-07T06:29:01;24.52;;;12.70;;
61471;SDS011;47337;54.068;12.114;2024-03-07T06:31:29;23.98;;;12.48;;
61471;SDS011;47337;54.068;12.114;2024-03-07T06:33:54;27.65;;;12.60;;
61471;SDS011;47337;54.068;12.114;2024-03-07T06:36:20;33.15;;;13.43;;
61471;SDS011;47337;54.068;12.114;2024-03-07T06:38:45;30.35;;;13.32;;
61471;SDS011;47337;54.068;12.114;2024-03-07T06:41:10;28.50;;;13.65;;
61471;SDS011;47337;54.068;12.114;2024-03-07T06:43:35;25.88;;;13.50;;
61471;SDS011;47337;54.068;12.114;2024-03-07T06:46:01;29.13;;;13.27;;
61471;SDS011;47337;54.068;12.114;2024-03-07T06:48:26;28.23;;;13.02;;
61471;SDS011;47337;54.068;12.114;2024-03-07T06:50:51;28.23;;;13.13;;
61471;SDS011;47337;54.068;12.114;2024-03-07T06:53:17;33.40;;;14.65;;
61471;SDS011;47337;54.068;12.114;2024-03-07T06:55:42;28.48;;;13.13;;
61471;SDS011;47337;54.068;12.114;2024-03-07T06:58:08;23.55;;;12.18;;
61471;SDS011;47337;54.068;12.114;2024-03-07T07:00:33;32.33;;;13.27;;
61471;SDS011;47337;54.068;12.114;2024-03-07T07:03:01;28.42;;;14.73;;
61471;SDS011;47337;54.068;12.114;2024-03-07T07:05:29;25.98;;;12.77;;
61471;SDS011;47337;54.068;12.114;2024-03-07T07:07:55;28.67;;;12.80;;
61471;SDS011;47337;54.068;12.114;2024-03-07T07:10:20;27.42;;;13.52;;
61471;SDS011;47337;54.068;12.114;2024-03-07T07:12:49;29.85;;;13.35;;
61471;SDS011;47337;54.068;12.114;2024-03-07T07:15:18;31.70;;;13.55;;
61471;SDS011;47337;54.068;12.114;2024-03-07T07:17:46;38.78;;;13.70;;
61471;SDS011;47337;54.068;12.114;2024-03-07T07:20:13;26.45;;;13.43;;
61471;SDS011;47337;54.068;12.114;2024-03-07T07:22:43;28.40;;;13.07;;
61471;SDS011;47337;54.068;12.114;2024-03-07T07:25:09;28.15;;;13.57;;
61471;SDS011;47337;54.068;12.114;2024-03-07T07:27:43;30.67;;;14.30;;
61471;SDS011;47337;54.068;12.114;2024-03-07T07:30:09;25.42;;;13.45;;
61471;SDS011;47337;54.068;12.114;2024-03-07T07:32:37;23.40;;;13.75;;
61471;SDS011;47337;54.068;12.114;2024-03-07T07:35:05;27.30;;;13.23;;
61471;SDS011;47337;54.068;12.114;2024-03-07T07:37:39;23.75;;;13.35;;
61471;SDS011;47337;54.068;12.114;2024-03-07T07:40:05;33.75;;;14.02;;
61471;SDS011;47337;54.068;12.114;2024-03-07T07:42:33;26.02;;;12.90;;
61471;SDS011;47337;54.068;12.114;2024-03-07T07:44:58;30.02;;;13.02;;
61471;SDS011;47337;54.068;12.114;2024-03-07T07:47:24;28.60;;;13.80;;
61471;SDS011;47337;54.068;12.114;2024-03-07T07:49:49;31.23;;;13.82;;
61471;SDS011;47337;54.068;12.114;2024-03-07T07:52:14;29.90;;;14.20;;
61471;SDS011;47337;54.068;12.114;2024-03-07T07:54:44;25.02;;;13.48;;
61471;SDS011;47337;54.068;12.114;2024-03-07T07:57:11;27.65;;;13.63;;
61471;SDS011;47337;54.068;12.114;2024-03-07T07:59:37;24.70;;;12.65;;
61471;SDS011;47337;54.068;12.114;2024-03-07T08:02:02;30.27;;;15.05;;
61471;SDS011;47337;54.068;12.114;2024-03-07T08:04:31;26.48;;;14.20;;
61471;SDS011;47337;54.068;12.114;2024-03-07T08:06:57;23.90;;;13.20;;
61471;SDS011;47337;54.068;12.114;2024-03-07T08:09:22;24.88;;;13.07;;
61471;SDS011;47337;54.068;12.114;2024-03-07T08:11:47;24.88;;;13.85;;
61471;SDS011;47337;54.068;12.114;2024-03-07T08:14:15;23.52;;;12.65;;
61471;SDS011;47337;54.068;12.114;2024-03-07T08:16:40;30.50;;;13.82;;
61471;SDS011;47337;54.068;12.114;2024-03-07T08:19:05;28.75;;;13.77;;
61471;SDS011;47337;54.068;12.114;2024-03-07T08:21:31;28.17;;;13.05;;
61471;SDS011;47337;54.068;12.114;2024-03-07T08:23:57;25.83;;;13.57;;
61471;SDS011;47337;54.068;12.114;2024-03-07T08:26:23;23.63;;;12.57;;
61471;SDS011;47337;54.068;12.114;2024-03-07T08:28:48;29.83;;;13.40;;
61471;SDS011;47337;54.068;12.114;2024-03-07T08:31:13;27.10;;;13.23;;
61471;SDS011;47337;54.068;12.114;2024-03-07T08:33:39;24.48;;;12.63;;
61471;SDS011;47337;54.068;12.114;2024-03-07T08:36:04;27.83;;;12.88;;
61471;SDS011;47337;54.068;12.114;2024-03-07T08:38:29;26.35;;;12.63;;
61471;SDS011;47337;54.068;12.114;2024-03-07T08:40:55;26.38;;;13.30;;
61471;SDS011;47337;54.068;12.114;2024-03-07T08:43:20;29.42;;;13.70;;
61471;SDS011;47337;54.068;12.114;2024-03-07T08:45:46;27.02;;;12.88;;
61471;SDS011;47337;54.068;12.114;2024-03-07T08:48:11;25.30;;;12.57;;
61471;SDS011;47337;54.068;12.114;2024-03-07T08:50:39;26.90;;;12.73;;
61471;SDS011;47337;54.068;12.114;2024-03-07T08:53:05;25.23;;;12.85;;
61471;SDS011;47337;54.068;12.114;2024-03-07T08:55:30;21.55;;;12.38;;
61471;SDS011;47337;54.068;12.114;2024-03-07T08:57:56;23.23;;;11.75;;
61471;SDS011;47337;54.068;12.114;2024-03-07T09:00:21;27.27;;;13.10;;
61471;SDS011;47337;54.068;12.114;2024-03-07T09:02:53;28.45;;;12.52;;
61471;SDS011;47337;54.068;12.114;2024-03-07T09:05:19;24.17;;;11.95;;
61471;SDS011;47337;54.068;12.114;2024-03-07T09:07:45;25.50;;;12.00;;
61471;SDS011;47337;54.068;12.114;2024-03-07T09:10:11;18.60;;;10.63;;
61471;SDS011;47337;54.068;12.114;2024-03-07T09:12:37;22.90;;;12.60;;
61471;SDS011;47337;54.068;12.114;2024-03-07T09:15:03;22.25;;;11.23;;
61471;SDS011;47337;54.068;12.114;2024-03-07T09:17:28;22.10;;;10.98;;
61471;SDS011;47337;54.068;12.114;2024-03-07T09:19:54;24.58;;;12.63;;
61471;SDS011;47337;54.068;12.114;2024-03-07T09:22:19;21.77;;;12.05;;
61471;SDS011;47337;54.068;12.114;2024-03-07T09:24:44;26.17;;;10.73;;
61471;SDS011;47337;54.068;12.114;2024-03-07T09:27:09;24.67;;;12.00;;
61471;SDS011;47337;54.068;12.114;2024-03-07T09:29:35;20.02;;;10.70;;
61471;SDS011;47337;54.068;12.114;2024-03-07T09:32:02;22.08;;;11.75;;
61471;SDS011;47337;54.068;12.114;2024-03-07T09:34:28;20.42;;;10.93;;
61471;SDS011;47337;54.068;12.114;2024-03-07T09:36:55;20.88;;;11.05;;
61471;SDS011;47337;54.068;12.114;2024-03-07T09:39:21;25.50;;;11.65;;
61471;SDS011;47337;54.068;12.114;2024-03-07T09:41:46;21.83;;;10.65;;
61471;SDS011;47337;54.068;12.114;2024-03-07T09:44:14;22.63;;;10.68;;
61471;SDS011;47337;54.068;12.114;2024-03-07T09:46:47;20.35;;;10.38;;
61471;SDS011;47337;54.068;12.114;2024-03-07T09:49:14;22.50;;;10.85;;
61471;SDS011;47337;54.068;12.114;2024-03-07T09:51:39;21.08;;;10.55;;
61471;SDS011;47337;54.068;12.114;2024-03-07T09:54:04;19.08;;;10.20;;
61471;SDS011;47337;54.068;12.114;2024-03-07T09:56:30;21.67;;;9.98;;
61471;SDS011;47337;54.068;12.114;2024-03-07T09:59:01;17.27;;;9.55;;
61471;SDS011;47337;54.068;12.114;2024-03-07T10:01:28;20.83;;;10.32;;
61471;SDS011;47337;54.068;12.114;2024-03-07T10:04:00;18.48;;;10.13;;
61471;SDS011;47337;54.068;12.114;2024-03-07T10:06:35;18.92;;;9.82;;
61471;SDS011;47337;54.068;12.114;2024-03-07T10:09:00;18.17;;;10.57;;
61471;SDS011;47337;54.068;12.114;2024-03-07T10:11:25;19.13;;;9.85;;
61471;SDS011;47337;54.068;12.114;2024-03-07T10:13:52;20.05;;;11.07;;
61471;SDS011;47337;54.068;12.114;2024-03-07T10:16:17;16.33;;;9.77;;
61471;SDS011;47337;54.068;12.114;2024-03-07T10:18:43;19.15;;;9.93;;
61471;SDS011;47337;54.068;12.114;2024-03-07T10:21:09;20.25;;;11.57;;
61471;SDS011;47337;54.068;12.114;2024-03-07T10:23:38;17.95;;;9.50;;
61471;SDS011;47337;54.068;12.114;2024-03-07T10:26:04;17.27;;;10.27;;
61471;SDS011;47337;54.068;12.114;2024-03-07T10:28:32;19.30;;;10.13;;
61471;SDS011;47337;54.068;12.114;2024-03-07T10:30:58;16.70;;;10.30;;
61471;SDS011;47337;54.068;12.114;2024-03-07T10:33:27;20.67;;;9.82;;
61471;SDS011;47337;54.068;12.114;2024-03-07T10:36:00;17.67;;;10.07;;
61471;SDS011;47337;54.068;12.114;2024-03-07T10:38:27;21.23;;;11.48;;
61471;SDS011;47337;54.068;12.114;2024-03-07T10:40:53;15.65;;;9.65;;
61471;SDS011;47337;54.068;12.114;2024-03-07T10:43:20;17.77;;;10.25;;
61471;SDS011;47337;54.068;12.114;2024-03-07T10:45:46;18.50;;;9.25;;
61471;SDS011;47337;54.068;12.114;2024-03-07T10:48:12;14.25;;;8.48;;
61471;SDS011;47337;54.068;12.114;2024-03-07T10:53:14;14.82;;;8.35;;
61471;SDS011;47337;54.068;12.114;2024-03-07T10:55:45;20.17;;;9.70;;
61471;SDS011;47337;54.068;12.114;2024-03-07T10:58:16;18.30;;;9.07;;
61471;SDS011;47337;54.068;12.114;2024-03-07T11:00:49;15.02;;;8.75;;
61471;SDS011;47337;54.068;12.114;2024-03-07T11:03:17;17.63;;;9.25;;
61471;SDS011;47337;54.068;12.114;2024-03-07T11:05:48;14.68;;;8.32;;
61471;SDS011;47337;54.068;12.114;2024-03-07T11:08:13;14.32;;;8.70;;
61471;SDS011;47337;54.068;12.114;2024-03-07T11:10:40;12.60;;;8.15;;
61471;SDS011;47337;54.068;12.114;2024-03-07T11:13:09;15.80;;;8.50;;
61471;SDS011;47337;54.068;12.114;2024-03-07T11:15:38;15.80;;;9.10;;
61471;SDS011;47337;54.068;12.114;2024-03-07T11:18:04;12.73;;;7.75;;
61471;SDS011;47337;54.068;12.114;2024-03-07T11:20:36;18.00;;;7.75;;
61471;SDS011;47337;54.068;12.114;2024-03-07T11:23:24;15.82;;;7.45;;
61471;SDS011;47337;54.068;12.114;2024-03-07T11:25:47;16.50;;;8.27;;
61471;SDS011;47337;54.068;12.114;2024-03-07T11:28:13;17.33;;;7.88;;
61471;SDS011;47337;54.068;12.114;2024-03-07T11:30:45;12.63;;;7.75;;
61471;SDS011;47337;54.068;12.114;2024-03-07T11:33:10;14.35;;;7.97;;
61471;SDS011;47337;54.068;12.114;2024-03-07T11:35:39;14.85;;;7.78;;
61471;SDS011;47337;54.068;12.114;2024-03-07T11:38:06;16.63;;;7.72;;
61471;SDS011;47337;54.068;12.114;2024-03-07T11:42:57;11.73;;;7.00;;
61471;SDS011;47337;54.068;12.114;2024-03-07T11:45:25;12.52;;;7.15;;
61471;SDS011;47337;54.068;12.114;2024-03-07T11:47:51;13.48;;;7.32;;
61471;SDS011;47337;54.068;12.114;2024-03-07T11:50:25;12.43;;;7.20;;
61471;SDS011;47337;54.068;12.114;2024-03-07T11:52:51;16.38;;;7.97;;
61471;SDS011;47337;54.068;12.114;2024-03-07T11:55:19;11.93;;;7.03;;
61471;SDS011;47337;54.068;12.114;2024-03-07T11:57:46;11.15;;;7.07;;
61471;SDS011;47337;54.068;12.114;2024-03-07T12:00:12;15.25;;;7.63;;
61471;SDS011;47337;54.068;12.114;2024-03-07T12:02:39;11.77;;;7.57;;
61471;SDS011;47337;54.068;12.114;2024-03-07T12:05:05;12.95;;;7.18;;
61471;SDS011;47337;54.068;12.114;2024-03-07T12:07:31;14.02;;;7.78;;
61471;SDS011;47337;54.068;12.114;2024-03-07T12:09:56;12.75;;;7.63;;
61471;SDS011;47337;54.068;12.114;2024-03-07T12:12:22;12.13;;;7.07;;
61471;SDS011;47337;54.068;12.114;2024-03-07T12:14:47;14.60;;;7.97;;
61471;SDS011;47337;54.068;12.114;2024-03-07T12:17:13;12.25;;;7.05;;
61471;SDS011;47337;54.068;12.114;2024-03-07T12:19:41;13.60;;;7.00;;
61471;SDS011;47337;54.068;12.114;2024-03-07T12:22:09;13.32;;;6.75;;
61471;SDS011;47337;54.068;12.114;2024-03-07T12:24:41;13.40;;;6.95;;
61471;SDS011;47337;54.068;12.114;2024-03-07T12:27:10;16.35;;;7.32;;
61471;SDS011;47337;54.068;12.114;2024-03-07T12:29:38;12.23;;;7.68;;
61471;SDS011;47337;54.068;12.114;2024-03-07T12:32:07;11.32;;;6.75;;
61471;SDS011;47337;54.068;12.114;2024-03-07T12:34:36;12.18;;;7.70;;
61471;SDS011;47337;54.068;12.114;2024-03-07T12:37:05;17.75;;;7.88;;
61471;SDS011;47337;54.068;12.114;2024-03-07T12:39:34;13.82;;;7.93;;
61471;SDS011;47337;54.068;12.114;2024-03-07T12:42:03;16.98;;;7.57;;
61471;SDS011;47337;54.068;12.114;2024-03-07T12:44:38;15.93;;;8.02;;
61471;SDS011;47337;54.068;12.114;2024-03-07T12:47:07;12.63;;;6.90;;
61471;SDS011;47337;54.068;12.114;2024-03-07T12:49:35;14.82;;;7.93;;
61471;SDS011;47337;54.068;12.114;2024-03-07T12:52:03;16.67;;;7.75;;
61471;SDS011;47337;54.068;12.114;2024-03-07T12:54:28;12.32;;;7.63;;
61471;SDS011;47337;54.068;12.114;2024-03-07T12:56:54;17.02;;;8.52;;
61471;SDS011;47337;54.068;12.114;2024-03-07T12:59:19;12.25;;;7.13;;
61471;SDS011;47337;54.068;12.114;2024-03-07T13:01:49;16.85;;;8.60;;
61471;SDS011;47337;54.068;12.114;2024-03-07T13:04:14;12.18;;;6.78;;
61471;SDS011;47337;54.068;12.114;2024-03-07T13:06:40;13.50;;;7.65;;
61471;SDS011;47337;54.068;12.114;2024-03-07T13:09:11;15.07;;;7.65;;
61471;SDS011;47337;54.068;12.114;2024-03-07T13:11:39;14.13;;;7.25;;
61471;SDS011;47337;54.068;12.114;2024-03-07T13:14:12;12.05;;;7.20;;
61471;SDS011;47337;54.068;12.114;2024-03-07T13:16:38;12.35;;;7.57;;
61471;SDS011;47337;54.068;12.114;2024-03-07T13:19:08;11.73;;;7.90;;
61471;SDS011;47337;54.068;12.114;2024-03-07T13:21:33;14.38;;;7.45;;
61471;SDS011;47337;54.068;12.114;2024-03-07T13:24:00;12.80;;;7.10;;
61471;SDS011;47337;54.068;12.114;2024-03-07T13:26:26;14.60;;;7.82;;
61471;SDS011;47337;54.068;12.114;2024-03-07T13:28:57;13.60;;;7.05;;
61471;SDS011;47337;54.068;12.114;2024-03-07T13:31:26;11.75;;;6.88;;
61471;SDS011;47337;54.068;12.114;2024-03-07T13:33:52;12.77;;;7.68;;
61471;SDS011;47337;54.068;12.114;2024-03-07T13:36:18;13.90;;;8.02;;
61471;SDS011;47337;54.068;12.114;2024-03-07T13:38:57;12.60;;;7.65;;
61471;SDS011;47337;54.068;12.114;2024-03-07T13:41:23;14.85;;;7.90;;
61471;SDS011;47337;54.068;12.114;2024-03-07T13:43:50;14.38;;;8.02;;
61471;SDS011;47337;54.068;12.114;2024-03-07T13:46:16;16.90;;;8.05;;
61471;SDS011;47337;54.068;12.114;2024-03-07T13:48:43;13.20;;;8.05;;
61471;SDS011;47337;54.068;12.114;2024-03-07T13:51:08;16.95;;;8.35;;
61471;SDS011;47337;54.068;12.114;2024-03-07T13:53:34;15.35;;;8.05;;
61471;SDS011;47337;54.068;12.114;2024-03-07T14:06:30;13.50;;;7.85;;
61471;SDS011;47337;54.068;12.114;2024-03-07T14:09:13;13.10;;;7.75;;
61471;SDS011;47337;54.068;12.114;2024-03-07T14:27:50;17.17;;;9.02;;
61471;SDS011;47337;54.068;12.114;2024-03-07T14:32:52;16.38;;;9.30;;
61471;SDS011;47337;54.068;12.114;2024-03-07T14:35:24;16.40;;;10.00;;
61471;SDS011;47337;54.068;12.114;2024-03-07T14:37:53;18.83;;;9.18;;
61471;SDS011;47337;54.068;12.114;2024-03-07T14:40:19;14.63;;;8.57;;
61471;SDS011;47337;54.068;12.114;2024-03-07T14:42:47;18.13;;;9.57;;
61471;SDS011;47337;54.068;12.114;2024-03-07T14:45:15;19.45;;;9.80;;
61471;SDS011;47337;54.068;12.114;2024-03-07T14:47:44;16.92;;;9.70;;